createdAt,value
2017-10-12T00:00:00.877Z,15.82
2017-10-12T00:01:45.689Z,15.80
2017-10-12T00:02:46.299Z,15.82
2017-10-12T00:03:46.908Z,15.91
2017-10-12T00:04:47.520Z,15.84
2017-10-12T00:05:48.130Z,15.80
2017-10-12T00:06:48.742Z,15.84
2017-10-12T00:07:49.351Z,15.77
2017-10-12T00:08:49.962Z,15.79
2017-10-12T00:09:50.572Z,15.76
2017-10-12T00:10:51.184Z,15.91
2017-10-12T00:11:51.845Z,15.80
2017-10-12T00:12:52.468Z,15.86
2017-10-12T00:13:53.110Z,15.84
2017-10-12T00:14:53.721Z,15.76
2017-10-12T00:15:54.332Z,15.82
2017-10-12T00:16:54.943Z,15.79
2017-10-12T00:17:55.555Z,15.77
2017-10-12T00:18:56.188Z,15.79
2017-10-12T00:19:56.798Z,15.82
2017-10-12T00:20:57.408Z,15.80
2017-10-12T00:21:58.019Z,15.77
2017-10-12T00:22:58.618Z,15.77
2017-10-12T00:23:59.229Z,15.80
2017-10-12T00:24:59.840Z,15.79
2017-10-12T00:26:00.448Z,15.76
2017-10-12T00:27:01.049Z,15.79
2017-10-12T00:28:01.657Z,15.80
2017-10-12T00:29:02.269Z,15.77
2017-10-12T00:30:02.874Z,15.80
2017-10-12T00:31:03.476Z,15.77
2017-10-12T00:32:04.082Z,15.76
2017-10-12T00:33:04.696Z,15.80
2017-10-12T00:34:05.308Z,15.80
2017-10-12T00:35:05.919Z,15.80
2017-10-12T00:36:06.515Z,15.91
2017-10-12T00:37:07.123Z,15.92
2017-10-12T00:38:07.730Z,15.82
2017-10-12T00:39:08.344Z,15.87
2017-10-12T00:40:08.953Z,15.77
2017-10-12T00:41:09.565Z,15.83
2017-10-12T00:42:10.172Z,15.95
2017-10-12T00:43:10.783Z,15.97
2017-10-12T00:44:11.390Z,15.94
2017-10-12T00:45:11.998Z,15.97
2017-10-12T00:46:12.606Z,15.83
2017-10-12T00:47:13.217Z,15.89
2017-10-12T00:48:13.823Z,15.94
2017-10-12T00:49:14.424Z,15.87
2017-10-12T00:50:15.036Z,15.83
2017-10-12T00:51:15.638Z,15.95
2017-10-12T00:52:16.246Z,15.89
2017-10-12T00:53:16.856Z,15.87
2017-10-12T00:54:17.467Z,15.95
2017-10-12T00:55:18.080Z,15.94
2017-10-12T00:56:18.687Z,16.07
2017-10-12T00:57:19.299Z,16.04
2017-10-12T00:58:19.907Z,15.97
2017-10-12T00:59:20.506Z,16.02
2017-10-12T01:00:21.117Z,16.01
2017-10-12T01:01:21.730Z,16.02
2017-10-12T01:02:22.330Z,16.05
2017-10-12T01:03:22.938Z,15.97
2017-10-12T01:04:23.552Z,16.02
2017-10-12T01:05:24.159Z,16.02
2017-10-12T01:06:24.770Z,16.04
2017-10-12T01:07:25.377Z,15.99
2017-10-12T01:08:25.988Z,16.01
2017-10-12T01:09:26.599Z,16.05
2017-10-12T01:10:27.210Z,16.02
2017-10-12T01:11:27.816Z,16.08
2017-10-12T01:12:28.426Z,16.13
2017-10-12T01:13:29.027Z,16.08
2017-10-12T01:14:29.635Z,16.05
2017-10-12T01:15:30.244Z,16.04
2017-10-12T01:16:30.853Z,15.98
2017-10-12T01:17:31.463Z,15.98
2017-10-12T01:18:32.074Z,15.99
2017-10-12T01:19:32.672Z,15.94
2017-10-12T01:20:33.282Z,16.01
2017-10-12T01:21:33.891Z,15.95
2017-10-12T01:22:34.489Z,16.05
2017-10-12T01:23:35.090Z,15.99
2017-10-12T01:24:35.690Z,16.02
2017-10-12T01:25:36.298Z,15.94
2017-10-12T01:26:36.900Z,15.97
2017-10-12T01:27:37.509Z,15.87
2017-10-12T01:28:38.108Z,15.89
2017-10-12T01:29:38.716Z,15.86
2017-10-12T01:30:39.314Z,15.84
2017-10-12T01:31:39.924Z,15.83
2017-10-12T01:32:40.533Z,15.86
2017-10-12T01:33:41.141Z,15.92
2017-10-12T01:34:41.751Z,15.83
2017-10-12T01:35:42.362Z,15.80
2017-10-12T01:36:42.970Z,15.91
2017-10-12T01:37:43.573Z,15.91
2017-10-12T01:38:44.182Z,15.83
2017-10-12T01:39:44.792Z,15.86
2017-10-12T01:40:45.405Z,15.83
2017-10-12T01:41:46.015Z,15.76
2017-10-12T01:42:46.614Z,15.80
2017-10-12T01:43:47.227Z,15.73
2017-10-12T01:44:47.824Z,15.64
2017-10-12T01:45:48.438Z,15.67
2017-10-12T01:46:49.043Z,15.59
2017-10-12T01:47:49.648Z,15.59
2017-10-12T01:48:50.253Z,15.50
2017-10-12T01:49:50.861Z,15.47
2017-10-12T01:50:51.468Z,15.50
2017-10-12T01:51:52.078Z,15.44
2017-10-12T01:52:52.686Z,15.37
2017-10-12T01:53:53.296Z,15.22
2017-10-12T01:54:53.894Z,15.32
2017-10-12T01:55:54.503Z,15.14
2017-10-12T01:56:55.111Z,15.21
2017-10-12T01:57:55.728Z,15.26
2017-10-12T01:58:56.319Z,15.09
2017-10-12T01:59:56.924Z,15.04
2017-10-12T02:00:57.524Z,15.06
2017-10-12T02:01:58.123Z,15.11
2017-10-12T02:02:58.723Z,15.03
2017-10-12T02:03:59.332Z,14.99
2017-10-12T02:04:59.939Z,14.94
2017-10-12T02:06:00.538Z,15.00
2017-10-12T02:07:01.136Z,14.99
2017-10-12T02:08:01.746Z,14.99
2017-10-12T02:09:02.368Z,14.99
2017-10-12T02:10:02.944Z,15.01
2017-10-12T02:11:03.549Z,14.92
2017-10-12T02:12:04.157Z,14.91
2017-10-12T02:13:04.769Z,14.94
2017-10-12T02:14:05.366Z,14.96
2017-10-12T02:15:05.975Z,14.92
2017-10-12T02:16:06.581Z,15.00
2017-10-12T02:17:07.183Z,14.94
2017-10-12T02:18:07.791Z,14.99
2017-10-12T02:19:08.394Z,14.88
2017-10-12T02:20:09.004Z,15.01
2017-10-12T02:21:09.615Z,14.92
2017-10-12T02:22:10.223Z,14.92
2017-10-12T02:23:10.834Z,14.96
2017-10-12T02:24:11.438Z,14.89
2017-10-12T02:25:12.044Z,14.89
2017-10-12T02:26:12.643Z,14.95
2017-10-12T02:27:13.255Z,14.92
2017-10-12T02:28:13.862Z,14.89
2017-10-12T02:29:14.477Z,14.96
2017-10-12T02:30:15.083Z,14.86
2017-10-12T02:31:15.692Z,14.92
2017-10-12T02:32:16.289Z,14.99
2017-10-12T02:33:16.894Z,15.01
2017-10-12T02:34:17.499Z,14.96
2017-10-12T02:35:18.120Z,14.96
2017-10-12T02:36:18.727Z,14.99
2017-10-12T02:37:19.324Z,14.96
2017-10-12T02:38:19.941Z,15.00
2017-10-12T02:39:20.545Z,15.03
2017-10-12T02:40:21.146Z,15.03
2017-10-12T02:41:21.754Z,14.96
2017-10-12T02:42:22.361Z,15.06
2017-10-12T02:43:22.967Z,15.03
2017-10-12T02:44:23.578Z,14.99
2017-10-12T02:45:24.240Z,14.96
2017-10-12T02:46:24.848Z,14.96
2017-10-12T02:47:25.446Z,15.00
2017-10-12T02:48:26.054Z,15.03
2017-10-12T02:49:26.651Z,15.03
2017-10-12T02:50:27.262Z,15.00
2017-10-12T02:51:27.859Z,15.03
2017-10-12T02:52:28.460Z,14.95
2017-10-12T02:53:29.059Z,14.96
2017-10-12T02:54:29.671Z,14.99
2017-10-12T02:55:30.264Z,14.99
2017-10-12T02:56:30.872Z,15.00
2017-10-12T02:57:31.483Z,15.01
2017-10-12T02:58:32.079Z,15.03
2017-10-12T02:59:32.679Z,15.00
2017-10-12T03:00:33.296Z,15.01
2017-10-12T03:01:33.897Z,15.04
2017-10-12T03:02:34.500Z,15.04
2017-10-12T03:03:35.095Z,15.04
2017-10-12T03:04:35.692Z,15.07
2017-10-12T03:05:36.306Z,15.06
2017-10-12T03:06:36.901Z,15.06
2017-10-12T03:07:37.500Z,15.10
2017-10-12T03:08:38.108Z,15.21
2017-10-12T03:09:38.717Z,15.13
2017-10-12T03:10:39.314Z,15.09
2017-10-12T03:11:39.922Z,15.06
2017-10-12T03:12:40.525Z,15.21
2017-10-12T03:13:41.128Z,15.14
2017-10-12T03:14:41.742Z,15.19
2017-10-12T03:15:42.349Z,15.00
2017-10-12T03:16:42.942Z,15.25
2017-10-12T03:17:43.540Z,15.25
2017-10-12T03:18:44.152Z,15.26
2017-10-12T03:19:44.761Z,15.21
2017-10-12T03:20:45.357Z,15.14
2017-10-12T03:21:45.955Z,15.21
2017-10-12T03:22:46.563Z,15.21
2017-10-12T03:23:47.161Z,15.18
2017-10-12T03:24:47.771Z,15.22
2017-10-12T03:25:48.379Z,15.24
2017-10-12T03:26:48.993Z,15.21
2017-10-12T03:27:49.599Z,15.18
2017-10-12T03:28:50.208Z,15.17
2017-10-12T03:29:50.815Z,15.22
2017-10-12T03:30:51.414Z,15.18
2017-10-12T03:31:52.031Z,15.07
2017-10-12T03:32:52.639Z,15.13
2017-10-12T03:33:53.251Z,15.10
2017-10-12T03:34:53.853Z,15.04
2017-10-12T03:35:54.463Z,15.10
2017-10-12T03:36:55.070Z,14.96
2017-10-12T03:37:55.679Z,15.01
2017-10-12T03:38:56.279Z,15.00
2017-10-12T03:39:56.871Z,14.99
2017-10-12T03:40:57.481Z,14.96
2017-10-12T03:41:58.089Z,14.99
2017-10-12T03:42:58.689Z,14.96
2017-10-12T03:43:59.301Z,15.01
2017-10-12T03:44:59.902Z,15.03
2017-10-12T03:46:00.506Z,15.04
2017-10-12T03:47:01.114Z,15.03
2017-10-12T03:48:01.714Z,15.04
2017-10-12T03:49:02.322Z,15.06
2017-10-12T03:50:02.935Z,15.07
2017-10-12T03:51:03.533Z,15.03
2017-10-12T03:52:04.139Z,15.04
2017-10-12T03:53:04.737Z,15.04
2017-10-12T03:54:05.346Z,15.04
2017-10-12T03:55:05.958Z,15.00
2017-10-12T03:56:06.566Z,14.99
2017-10-12T03:57:07.164Z,15.00
2017-10-12T03:58:07.765Z,14.94
2017-10-12T03:59:08.374Z,15.03
2017-10-12T04:00:08.972Z,14.94
2017-10-12T04:01:09.578Z,14.91
2017-10-12T04:02:10.190Z,14.86
2017-10-12T04:03:10.795Z,14.86
2017-10-12T04:04:11.392Z,14.86
2017-10-12T04:05:12.005Z,14.91
2017-10-12T04:06:12.607Z,14.89
2017-10-12T04:07:13.212Z,14.91
2017-10-12T04:08:13.815Z,14.89
2017-10-12T04:09:14.426Z,14.94
2017-10-12T04:10:15.037Z,14.94
2017-10-12T04:11:15.645Z,14.99
2017-10-12T04:12:16.245Z,14.91
2017-10-12T04:13:16.850Z,14.85
2017-10-12T04:14:17.465Z,14.85
2017-10-12T04:15:18.070Z,14.78
2017-10-12T04:16:18.676Z,14.77
2017-10-12T04:17:19.293Z,14.77
2017-10-12T04:18:19.885Z,14.78
2017-10-12T04:19:20.501Z,14.62
2017-10-12T04:20:21.114Z,14.70
2017-10-12T04:21:21.728Z,14.70
2017-10-12T04:22:22.334Z,14.69
2017-10-12T04:23:22.945Z,14.69
2017-10-12T04:24:23.538Z,14.62
2017-10-12T04:25:24.145Z,14.66
2017-10-12T04:26:24.753Z,14.65
2017-10-12T04:27:25.362Z,14.65
2017-10-12T04:28:25.969Z,14.55
2017-10-12T04:29:26.580Z,14.47
2017-10-12T04:30:27.212Z,14.57
2017-10-12T04:31:27.793Z,14.48
2017-10-12T04:32:28.403Z,14.57
2017-10-12T04:33:29.011Z,14.57
2017-10-12T04:34:29.620Z,14.54
2017-10-12T04:35:30.230Z,14.45
2017-10-12T04:36:30.831Z,14.54
2017-10-12T04:37:31.440Z,14.55
2017-10-12T04:38:32.039Z,14.52
2017-10-12T04:39:32.668Z,14.48
2017-10-12T04:40:33.261Z,14.51
2017-10-12T04:41:33.881Z,14.60
2017-10-12T04:42:34.478Z,14.62
2017-10-12T04:43:35.083Z,14.55
2017-10-12T04:44:35.694Z,14.58
2017-10-12T04:45:36.299Z,14.50
2017-10-12T04:46:36.910Z,14.60
2017-10-12T04:47:37.521Z,14.60
2017-10-12T04:48:38.127Z,14.60
2017-10-12T04:49:38.737Z,14.63
2017-10-12T04:50:39.346Z,14.60
2017-10-12T04:51:39.955Z,14.60
2017-10-12T04:52:40.558Z,14.48
2017-10-12T04:53:41.162Z,14.58
2017-10-12T04:54:41.773Z,14.55
2017-10-12T04:55:42.380Z,14.60
2017-10-12T04:56:42.992Z,14.48
2017-10-12T04:57:43.603Z,14.60
2017-10-12T04:58:44.211Z,14.63
2017-10-12T04:59:44.817Z,14.63
2017-10-12T05:00:45.426Z,14.62
2017-10-12T05:01:46.036Z,14.55
2017-10-12T05:02:46.645Z,14.54
2017-10-12T05:03:47.255Z,14.57
2017-10-12T05:04:47.848Z,14.63
2017-10-12T05:05:48.456Z,14.65
2017-10-12T05:06:49.056Z,14.63
2017-10-12T05:07:49.664Z,14.63
2017-10-12T05:08:50.276Z,14.66
2017-10-12T05:09:50.885Z,14.60
2017-10-12T05:10:51.492Z,14.60
2017-10-12T05:11:52.104Z,14.65
2017-10-12T05:12:52.709Z,14.50
2017-10-12T05:13:53.319Z,14.52
2017-10-12T05:14:53.939Z,14.54
2017-10-12T05:15:54.521Z,14.55
2017-10-12T05:16:55.133Z,14.55
2017-10-12T05:17:55.740Z,14.54
2017-10-12T05:18:56.339Z,14.48
2017-10-12T05:19:56.947Z,14.50
2017-10-12T05:20:57.557Z,14.50
2017-10-12T05:21:58.175Z,14.51
2017-10-12T05:22:58.768Z,14.40
2017-10-12T05:23:59.376Z,14.50
2017-10-12T05:24:59.970Z,14.36
2017-10-12T05:26:00.568Z,14.32
2017-10-12T05:27:01.167Z,14.36
2017-10-12T05:28:01.777Z,14.21
2017-10-12T05:29:02.389Z,14.32
2017-10-12T05:30:03.001Z,14.21
2017-10-12T05:31:03.608Z,14.18
2017-10-12T05:32:04.221Z,14.25
2017-10-12T05:33:04.838Z,14.27
2017-10-12T05:34:05.443Z,14.32
2017-10-12T05:35:06.055Z,14.25
2017-10-12T05:36:06.663Z,14.21
2017-10-12T05:37:07.273Z,14.25
2017-10-12T05:38:07.883Z,14.25
2017-10-12T05:39:08.489Z,14.29
2017-10-12T05:40:09.091Z,14.25
2017-10-12T05:41:09.701Z,14.21
2017-10-12T05:42:10.310Z,14.33
2017-10-12T05:43:10.923Z,14.23
2017-10-12T05:44:11.531Z,14.23
2017-10-12T05:45:12.133Z,14.25
2017-10-12T05:46:12.747Z,14.29
2017-10-12T05:47:13.356Z,14.12
2017-10-12T05:48:13.960Z,14.12
2017-10-12T05:49:14.574Z,14.25
2017-10-12T05:50:15.180Z,14.15
2017-10-12T05:51:15.794Z,14.15
2017-10-12T05:52:16.409Z,14.17
2017-10-12T05:53:17.019Z,14.17
2017-10-12T05:54:17.630Z,14.18
2017-10-12T05:55:18.243Z,14.30
2017-10-12T05:56:18.855Z,14.14
2017-10-12T05:57:19.469Z,14.08
2017-10-12T05:58:20.087Z,14.15
2017-10-12T05:59:20.702Z,14.15
2017-10-12T06:00:21.319Z,14.18
2017-10-12T06:01:21.928Z,14.12
2017-10-12T06:02:22.539Z,14.14
2017-10-12T06:03:23.148Z,14.17
2017-10-12T06:04:23.775Z,14.23
2017-10-12T06:05:24.362Z,14.18
2017-10-12T06:06:24.969Z,14.07
2017-10-12T06:07:25.583Z,14.15
2017-10-12T06:08:26.196Z,14.08
2017-10-12T06:09:26.808Z,14.03
2017-10-12T06:10:27.411Z,14.07
2017-10-12T06:11:28.014Z,14.02
2017-10-12T06:12:28.660Z,13.93
2017-10-12T06:13:29.240Z,13.94
2017-10-12T06:14:29.849Z,14.00
2017-10-12T06:15:30.462Z,13.90
2017-10-12T06:16:31.080Z,13.87
2017-10-12T06:17:31.684Z,13.87
2017-10-12T06:18:32.305Z,13.86
2017-10-12T06:19:32.915Z,13.87
2017-10-12T06:20:33.527Z,13.87
2017-10-12T06:21:34.140Z,13.87
2017-10-12T06:22:34.756Z,13.87
2017-10-12T06:23:35.369Z,13.86
2017-10-12T06:24:35.984Z,13.89
2017-10-12T06:25:36.597Z,13.87
2017-10-12T06:26:37.215Z,13.89
2017-10-12T06:27:37.828Z,13.94
2017-10-12T06:28:38.430Z,13.94
2017-10-12T06:29:39.047Z,13.94
2017-10-12T06:30:39.652Z,13.93
2017-10-12T06:31:40.268Z,14.08
2017-10-12T06:32:40.889Z,14.05
2017-10-12T06:33:41.509Z,14.00
2017-10-12T06:34:42.117Z,14.11
2017-10-12T06:35:42.739Z,14.12
2017-10-12T06:36:43.391Z,14.17
2017-10-12T06:37:43.966Z,14.17
2017-10-12T06:38:44.586Z,14.17
2017-10-12T06:39:45.195Z,14.15
2017-10-12T06:40:45.811Z,14.10
2017-10-12T06:41:46.423Z,14.26
2017-10-12T06:42:47.028Z,14.18
2017-10-12T06:43:47.631Z,14.33
2017-10-12T06:44:48.253Z,14.35
2017-10-12T06:45:48.860Z,14.35
2017-10-12T06:46:49.481Z,14.35
2017-10-12T06:47:50.081Z,14.37
2017-10-12T06:48:50.719Z,14.36
2017-10-12T06:49:51.301Z,14.40
2017-10-12T06:50:51.922Z,14.36
2017-10-12T06:51:52.587Z,14.40
2017-10-12T06:52:53.184Z,14.30
2017-10-12T06:53:53.798Z,14.36
2017-10-12T06:54:54.418Z,14.43
2017-10-12T06:55:55.031Z,14.52
2017-10-12T06:56:55.636Z,14.65
2017-10-12T06:57:56.242Z,14.75
2017-10-12T06:58:56.854Z,14.75
2017-10-12T06:59:57.485Z,14.91
2017-10-12T07:00:58.080Z,15.00
2017-10-12T07:01:58.691Z,15.19
2017-10-12T07:02:59.313Z,15.19
2017-10-12T07:03:59.929Z,15.13
2017-10-12T07:05:00.540Z,15.19
2017-10-12T07:06:01.191Z,15.10
2017-10-12T07:07:01.807Z,15.04
2017-10-12T07:08:02.398Z,15.19
2017-10-12T07:09:03.004Z,15.06
2017-10-12T07:10:03.625Z,15.10
2017-10-12T07:11:04.241Z,15.18
2017-10-12T07:12:04.857Z,15.25
2017-10-12T07:13:05.477Z,15.29
2017-10-12T07:14:06.096Z,15.32
2017-10-12T07:15:06.711Z,15.44
2017-10-12T07:16:07.356Z,15.32
2017-10-12T07:17:07.944Z,15.25
2017-10-12T07:18:08.573Z,15.26
2017-10-12T07:19:09.197Z,15.24
2017-10-12T07:20:09.802Z,15.18
2017-10-12T07:21:10.418Z,15.19
2017-10-12T07:22:11.038Z,15.44
2017-10-12T07:23:11.659Z,15.76
2017-10-12T07:24:12.268Z,16.08
2017-10-12T07:25:12.889Z,16.45
2017-10-12T07:26:13.505Z,16.66
2017-10-12T07:27:14.178Z,16.68
2017-10-12T07:28:14.788Z,16.71
2017-10-12T07:29:15.473Z,16.58
2017-10-12T07:30:16.090Z,16.61
2017-10-12T07:31:16.700Z,16.56
2017-10-12T07:32:17.421Z,16.42
2017-10-12T07:33:17.944Z,16.43
2017-10-12T07:34:18.887Z,16.41
2017-10-12T07:35:19.453Z,16.21
2017-10-12T07:36:20.349Z,16.23
2017-10-12T07:37:20.953Z,16.10
2017-10-12T07:38:22.208Z,15.97
2017-10-12T07:39:22.801Z,15.84
2017-10-12T07:40:23.415Z,15.80
2017-10-12T07:41:24.032Z,15.99
2017-10-12T07:42:24.650Z,16.12
2017-10-12T07:43:25.316Z,16.12
2017-10-12T07:44:26.058Z,16.24
2017-10-12T07:45:26.586Z,16.42
2017-10-12T07:46:27.212Z,16.68
2017-10-12T07:47:28.033Z,16.75
2017-10-12T07:48:28.652Z,16.60
2017-10-12T07:49:29.358Z,16.50
2017-10-12T07:50:30.170Z,16.53
2017-10-12T07:51:30.813Z,16.53
2017-10-12T07:52:31.488Z,16.53
2017-10-12T07:53:32.107Z,16.46
2017-10-12T07:54:32.730Z,16.36
2017-10-12T07:55:33.347Z,16.27
2017-10-12T07:56:33.964Z,16.27
2017-10-12T07:57:34.577Z,16.27
2017-10-12T07:58:35.197Z,16.68
2017-10-12T07:59:35.828Z,16.76
2017-10-12T08:00:36.437Z,16.69
2017-10-12T08:01:37.045Z,16.69
2017-10-12T08:02:37.668Z,16.89
2017-10-12T08:03:38.303Z,16.76
2017-10-12T08:04:38.933Z,16.72
2017-10-12T08:05:39.544Z,16.79
2017-10-12T08:06:40.155Z,16.60
2017-10-12T08:07:40.766Z,16.50
2017-10-12T08:08:41.483Z,16.42
2017-10-12T08:09:42.086Z,16.54
2017-10-12T08:10:42.683Z,16.53
2017-10-12T08:11:43.302Z,16.33
2017-10-12T08:12:43.926Z,16.27
2017-10-12T08:13:44.558Z,16.24
2017-10-12T08:14:45.161Z,16.16
2017-10-12T08:15:45.781Z,16.13
2017-10-12T08:16:46.405Z,16.16
2017-10-12T08:17:47.025Z,16.23
2017-10-12T08:18:47.639Z,16.21
2017-10-12T08:19:48.257Z,16.31
2017-10-12T08:20:48.881Z,16.31
2017-10-12T08:21:49.505Z,16.24
2017-10-12T08:22:50.132Z,16.25
2017-10-12T08:23:50.755Z,16.20
2017-10-12T08:24:51.372Z,16.16
2017-10-12T08:25:51.993Z,16.12
2017-10-12T08:26:52.614Z,16.15
2017-10-12T08:27:53.231Z,16.08
2017-10-12T08:28:53.854Z,16.04
2017-10-12T08:29:54.482Z,15.99
2017-10-12T08:30:55.106Z,15.97
2017-10-12T08:31:55.719Z,15.87
2017-10-12T08:32:56.342Z,15.82
2017-10-12T08:33:56.968Z,15.89
2017-10-12T08:34:57.574Z,15.89
2017-10-12T08:35:58.194Z,15.97
2017-10-12T08:36:58.815Z,15.95
2017-10-12T08:37:59.441Z,15.99
2017-10-12T08:39:00.058Z,16.02
2017-10-12T08:40:00.672Z,16.01
2017-10-12T08:41:01.290Z,16.08
2017-10-12T08:42:01.901Z,16.10
2017-10-12T08:43:02.518Z,16.10
2017-10-12T08:44:03.133Z,16.12
2017-10-12T08:45:03.739Z,16.17
2017-10-12T08:46:04.372Z,16.12
2017-10-12T08:47:04.997Z,16.21
2017-10-12T08:48:05.619Z,16.25
2017-10-12T08:49:06.237Z,16.39
2017-10-12T08:50:06.856Z,16.41
2017-10-12T08:51:07.477Z,16.36
2017-10-12T08:52:08.080Z,16.42
2017-10-12T08:53:08.687Z,16.42
2017-10-12T08:54:09.306Z,16.49
2017-10-12T08:55:09.922Z,16.64
2017-10-12T08:56:10.548Z,17.05
2017-10-12T08:57:11.372Z,17.12
2017-10-12T08:58:11.988Z,17.49
2017-10-12T08:59:12.603Z,17.39
2017-10-12T09:00:13.226Z,17.70
2017-10-12T09:01:13.846Z,18.03
2017-10-12T09:02:14.464Z,18.20
2017-10-12T09:03:15.083Z,18.14
2017-10-12T09:04:15.923Z,17.97
2017-10-12T09:05:16.546Z,17.93
2017-10-12T09:06:17.153Z,18.00
2017-10-12T09:07:17.777Z,17.93
2017-10-12T09:08:18.389Z,18.20
2017-10-12T09:09:19.230Z,18.58
2017-10-12T09:10:19.847Z,18.68
2017-10-12T09:11:20.485Z,18.96
2017-10-12T09:12:21.095Z,19.15
2017-10-12T09:13:21.729Z,18.95
2017-10-12T09:14:22.356Z,18.90
2017-10-12T09:15:22.968Z,18.95
2017-10-12T09:16:23.597Z,18.96
2017-10-12T09:17:24.218Z,19.07
2017-10-12T09:18:24.837Z,19.15
2017-10-12T09:19:25.469Z,19.33
2017-10-12T09:20:26.079Z,19.62
2017-10-12T09:21:26.730Z,19.71
2017-10-12T09:22:27.351Z,20.04
2017-10-12T09:23:27.968Z,20.22
2017-10-12T09:24:28.602Z,20.28
2017-10-12T09:25:29.229Z,20.35
2017-10-12T09:26:29.855Z,20.36
2017-10-12T09:27:30.471Z,20.43
2017-10-12T09:28:31.100Z,20.44
2017-10-12T09:29:31.739Z,20.50
2017-10-12T09:30:32.357Z,20.78
2017-10-12T09:31:32.974Z,20.99
2017-10-12T09:32:33.615Z,21.00
2017-10-12T09:33:34.221Z,21.18
2017-10-12T09:34:35.073Z,21.52
2017-10-12T09:35:35.714Z,21.62
2017-10-12T09:36:36.345Z,21.57
2017-10-12T09:37:37.003Z,21.39
2017-10-12T09:38:37.617Z,21.39
2017-10-12T09:39:38.245Z,21.24
2017-10-12T09:40:38.874Z,21.39
2017-10-12T09:41:39.516Z,21.64
2017-10-12T09:42:40.145Z,21.79
2017-10-12T09:43:40.779Z,21.51
2017-10-12T09:44:41.609Z,21.51
2017-10-12T09:45:42.232Z,21.70
2017-10-12T09:46:42.862Z,21.77
2017-10-12T09:47:43.744Z,21.73
2017-10-12T09:48:44.755Z,21.64
2017-10-12T09:49:45.387Z,21.70
2017-10-12T09:50:46.011Z,21.20
2017-10-12T09:51:46.637Z,20.63
2017-10-12T09:52:47.254Z,20.54
2017-10-12T09:53:47.881Z,20.66
2017-10-12T09:54:48.506Z,20.67
2017-10-12T09:55:49.115Z,20.87
2017-10-12T09:56:49.736Z,21.06
2017-10-12T09:57:50.363Z,21.14
2017-10-12T09:58:50.996Z,21.36
2017-10-12T09:59:51.637Z,21.27
2017-10-12T10:00:52.254Z,20.85
2017-10-12T10:01:52.879Z,20.84
2017-10-12T10:02:53.510Z,20.95
2017-10-12T10:03:54.129Z,20.77
2017-10-12T10:04:54.747Z,20.77
2017-10-12T10:05:55.374Z,21.00
2017-10-12T10:06:56.001Z,21.40
2017-10-12T10:07:56.628Z,21.52
2017-10-12T10:08:57.252Z,21.58
2017-10-12T10:09:57.881Z,21.65
2017-10-12T10:10:58.502Z,21.42
2017-10-12T10:11:59.123Z,21.37
2017-10-12T10:12:59.760Z,21.33
2017-10-12T10:14:00.375Z,21.12
2017-10-12T10:15:01.003Z,20.96
2017-10-12T10:16:01.620Z,21.00
2017-10-12T10:17:02.242Z,21.06
2017-10-12T10:18:02.866Z,21.20
2017-10-12T10:19:03.491Z,21.10
2017-10-12T10:20:04.123Z,20.98
2017-10-12T10:21:04.759Z,20.96
2017-10-12T10:22:05.385Z,20.95
2017-10-12T10:23:06.017Z,21.09
2017-10-12T10:24:06.640Z,21.02
2017-10-12T10:25:07.267Z,20.99
2017-10-12T10:26:07.888Z,20.85
2017-10-12T10:27:08.524Z,20.81
2017-10-12T10:28:09.130Z,20.67
2017-10-12T10:29:09.752Z,20.60
2017-10-12T10:30:10.378Z,20.66
2017-10-12T10:31:11.000Z,20.66
2017-10-12T10:32:11.623Z,20.80
2017-10-12T10:33:12.248Z,20.90
2017-10-12T10:34:12.930Z,21.18
2017-10-12T10:35:13.518Z,21.42
2017-10-12T10:36:14.137Z,21.40
2017-10-12T10:37:14.762Z,21.18
2017-10-12T10:38:15.409Z,21.06
2017-10-12T10:39:16.163Z,21.15
2017-10-12T10:40:16.727Z,21.22
2017-10-12T10:41:17.349Z,20.82
2017-10-12T10:42:17.994Z,20.81
2017-10-12T10:43:18.618Z,20.77
2017-10-12T10:44:19.237Z,20.91
2017-10-12T10:45:19.859Z,21.17
2017-10-12T10:46:20.487Z,21.33
2017-10-12T10:47:21.115Z,21.45
2017-10-12T10:48:21.744Z,21.54
2017-10-12T10:49:22.367Z,21.62
2017-10-12T10:50:22.995Z,21.92
2017-10-12T10:51:23.620Z,21.91
2017-10-12T10:52:24.239Z,22.01
2017-10-12T10:53:24.863Z,21.95
2017-10-12T10:54:25.495Z,21.55
2017-10-12T10:55:26.198Z,21.61
2017-10-12T10:56:26.741Z,21.65
2017-10-12T10:57:27.364Z,21.54
2017-10-12T10:58:27.988Z,21.30
2017-10-12T10:59:28.623Z,21.10
2017-10-12T11:00:29.310Z,20.96
2017-10-12T11:01:29.936Z,20.57
2017-10-12T11:02:30.557Z,20.85
2017-10-12T11:03:31.430Z,20.67
2017-10-12T11:04:32.596Z,20.78
2017-10-12T11:05:33.198Z,20.80
2017-10-12T11:06:33.810Z,20.34
2017-10-12T11:07:34.447Z,20.24
2017-10-12T11:08:35.120Z,20.24
2017-10-12T11:09:35.720Z,19.91
2017-10-12T11:10:36.334Z,19.80
2017-10-12T11:11:36.947Z,19.77
2017-10-12T11:12:37.570Z,19.81
2017-10-12T11:13:38.203Z,19.77
2017-10-12T11:14:38.939Z,19.58
2017-10-12T11:15:39.612Z,19.31
2017-10-12T11:16:40.226Z,19.29
2017-10-12T11:17:40.845Z,19.49
2017-10-12T11:18:41.463Z,19.59
2017-10-12T11:19:42.085Z,19.47
2017-10-12T11:20:42.707Z,19.44
2017-10-12T11:21:43.330Z,19.34
2017-10-12T11:22:43.948Z,19.40
2017-10-12T11:23:44.568Z,19.66
2017-10-12T11:24:45.202Z,19.73
2017-10-12T11:25:45.809Z,19.88
2017-10-12T11:26:46.469Z,19.84
2017-10-12T11:27:47.114Z,19.67
2017-10-12T11:28:47.750Z,19.77
2017-10-12T11:29:48.363Z,19.47
2017-10-12T11:30:48.978Z,19.67
2017-10-12T11:31:49.604Z,19.59
2017-10-12T11:32:50.231Z,19.61
2017-10-12T11:33:50.861Z,19.71
2017-10-12T11:34:51.493Z,19.69
2017-10-12T11:35:52.097Z,19.81
2017-10-12T11:36:52.761Z,20.19
2017-10-12T11:37:53.360Z,20.14
2017-10-12T11:38:53.977Z,20.09
2017-10-12T11:39:54.599Z,20.35
2017-10-12T11:40:55.223Z,20.54
2017-10-12T11:41:55.849Z,20.52
2017-10-12T11:42:56.474Z,20.51
2017-10-12T11:43:57.089Z,20.69
2017-10-12T11:44:57.716Z,20.63
2017-10-12T11:45:58.341Z,20.43
2017-10-12T11:46:58.967Z,20.35
2017-10-12T11:47:59.585Z,20.42
2017-10-12T11:49:00.209Z,20.29
2017-10-12T11:50:00.835Z,20.22
2017-10-12T11:51:01.454Z,20.14
2017-10-12T11:52:02.077Z,20.02
2017-10-12T11:53:02.702Z,19.99
2017-10-12T11:54:03.332Z,19.98
2017-10-12T11:55:03.949Z,19.94
2017-10-12T11:56:04.573Z,19.99
2017-10-12T11:57:05.192Z,19.85
2017-10-12T11:58:05.822Z,19.80
2017-10-12T11:59:06.553Z,20.22
2017-10-12T12:00:07.087Z,20.24
2017-10-12T12:01:07.724Z,20.32
2017-10-12T12:02:08.364Z,20.22
2017-10-12T12:03:08.976Z,20.28
2017-10-12T12:04:09.610Z,20.29
2017-10-12T12:05:10.239Z,20.36
2017-10-12T12:06:10.857Z,20.80
2017-10-12T12:07:11.492Z,20.95
2017-10-12T12:08:12.108Z,20.81
2017-10-12T12:09:12.731Z,20.69
2017-10-12T12:10:13.351Z,20.81
2017-10-12T12:11:13.967Z,20.65
2017-10-12T12:12:14.585Z,20.67
2017-10-12T12:13:15.209Z,20.99
2017-10-12T12:14:15.828Z,21.02
2017-10-12T12:15:16.453Z,21.00
2017-10-12T12:16:17.078Z,20.95
2017-10-12T12:17:17.700Z,21.14
2017-10-12T12:18:18.325Z,21.15
2017-10-12T12:19:18.931Z,21.07
2017-10-12T12:20:19.554Z,20.96
2017-10-12T12:21:20.180Z,20.98
2017-10-12T12:22:20.798Z,21.10
2017-10-12T12:23:21.418Z,21.14
2017-10-12T12:24:22.050Z,20.75
2017-10-12T12:25:22.798Z,20.80
2017-10-12T12:26:23.363Z,20.80
2017-10-12T12:27:23.987Z,20.62
2017-10-12T12:28:24.622Z,20.48
2017-10-12T12:29:25.230Z,20.60
2017-10-12T12:30:25.840Z,20.80
2017-10-12T12:31:26.463Z,20.77
2017-10-12T12:32:27.071Z,20.31
2017-10-12T12:33:27.693Z,20.26
2017-10-12T12:34:28.302Z,20.10
2017-10-12T12:35:28.916Z,20.03
2017-10-12T12:36:29.528Z,20.25
2017-10-12T12:37:30.151Z,20.22
2017-10-12T12:38:30.762Z,20.60
2017-10-12T12:39:31.380Z,20.81
2017-10-12T12:40:31.993Z,20.85
2017-10-12T12:41:32.615Z,20.88
2017-10-12T12:42:33.226Z,20.92
2017-10-12T12:43:33.845Z,20.60
2017-10-12T12:44:34.468Z,20.47
2017-10-12T12:45:35.085Z,20.47
2017-10-12T12:46:35.708Z,20.24
2017-10-12T12:47:36.330Z,20.07
2017-10-12T12:48:36.952Z,20.03
2017-10-12T12:49:37.575Z,20.29
2017-10-12T12:50:38.349Z,20.78
2017-10-12T12:51:38.938Z,20.90
2017-10-12T12:52:39.559Z,20.95
2017-10-12T12:53:40.184Z,20.95
2017-10-12T12:54:40.787Z,20.96
2017-10-12T12:55:41.396Z,21.07
2017-10-12T12:56:42.020Z,21.21
2017-10-12T12:57:42.650Z,21.40
2017-10-12T12:58:43.260Z,21.55
2017-10-12T12:59:43.884Z,21.36
2017-10-12T13:00:44.546Z,21.24